Matecaña International Airport
SKPE : now visible

Airfield :











YOU CAN JOIN US ON...

 
LOGIN :

Register | Disclaimer

   EN    FR    IT 

 









Legend :    VFR   Marginal VFR   IFR   Intensive IFR   Very Intensive IFR
Visi :
Ceiling :
>= 8 km
>= 3000ft
5 to 8 km
1000 to 3000 ft
1500m to 5 km
500 to 1000 ft
800 to 1500m
200 to 500 ft
< 800m
< 200 ft
Symbols :   Thunderstorms  Fog  Heavy snow  Heavy precipitations  Wind > 20 kt






- Airport Elevation : 4416 ft
- IATA code : PEI


SKPE - Matecaña International

CURRENT METAR :
  • 191800Z 31006KT 9999 FEW023 SCT200 27/20 A2997

EXPIRED METARs :
  • 191700Z 28006KT 9999 SCT020 SCT200 27/20 A3001
  • 191600Z 33005KT 9999 FEW020 SCT200 26/20 A3003

TAF TAF SKPE
Valid from the 19 at 18:00 until the 20 at 18:00 UTC


191630Z 1918/2018 33006KT 9999 SCT017
TEMPO 1920/1923 8000 VCSH SCT017TCU
BECMG 1923/2001 VRB02KT FEW015 BKN080
TEMPO 2004/2006 8000 VCSH
TEMPO 2010/2013 7000 VCFG TX29/1919Z TN18/2011Z



MET'MAP, your aeronautical weather chart ! - Copyright ORBIFLY December 2007 - Disclaimer

ORBIFLY MET'MAP TEAM :

Programming & Development : Alexandra Zaïnal
Concept & original design : Baudouin d'Aumeries
Assistance for programming : Marc-Olivier Méhu
Technical & hardware support : Manuel Goepfert

Contact : metmap@orbifly.com




SOURCES & CREDITS :

   NOAA       Earth
Advisory